Time;durP1;ratioP1;P1;durP2;ratioP2;P2;SDS_P1;SDS_P2;PMS_P1;PMS_P2;Temp;Humidity;BMP_temperature;BMP_pressure;BME280_temperature;BME280_humidity;BME280_pressure;Samples;Min_cycle;Max_cycle;Signal;HPM_P1;HPM_P2
2021/09/24 00:00:41;;;;;;;;;;;13.80;99.90;;;;;;5096582;28;19951;-73
2021/09/24 00:03:13;;;;;;;;;;;13.80;99.90;;;;;;5080256;28;20323;-73
2021/09/24 00:05:45;;;;;;;;;;;13.80;99.90;;;;;;5080030;28;20385;-73
2021/09/24 00:08:17;;;;;;;;;;;13.90;99.90;;;;;;5080225;28;20324;-73
2021/09/24 00:10:44;;;;;;;;;;;13.90;99.90;;;;;;5114381;28;20322;-73
2021/09/24 00:13:12;;;;;;;;;;;13.90;99.90;;;;;;5079314;28;19928;-73
2021/09/24 00:15:43;;;;;;;;;;;13.90;99.90;;;;;;5095795;28;19924;-73
2021/09/24 00:18:15;;;;;;;;;;;14.00;99.90;;;;;;5096386;28;20331;-73
2021/09/24 00:20:42;;;;;;;;;;;14.10;99.90;;;;;;5079015;28;19923;-73
2021/09/24 00:23:09;;;;;;;;;;;14.10;99.90;;;;;;5095848;28;20028;-73
2021/09/24 00:25:35;;;;;;;;;;;14.20;99.90;;;;;;5078609;28;20352;-73
2021/09/24 00:28:08;;;;;;;;;;;14.30;99.90;;;;;;5079678;28;19923;-73
2021/09/24 00:30:35;;;;;;;;;;;14.30;99.90;;;;;;5078840;28;19924;-73
2021/09/24 00:33:07;;;;;;;;;;;14.20;99.90;;;;;;5096644;28;20455;-73
2021/09/24 00:35:39;;;;;;;;;;;14.10;99.90;;;;;;5113770;28;19959;-73
2021/09/24 00:38:11;;;;;;;;;;;14.00;99.90;;;;;;5096574;28;19923;-73
2021/09/24 00:40:42;;;;;;;;;;;13.80;99.90;;;;;;5113781;28;19924;-73
2021/09/24 00:43:14;;;;;;;;;;;13.80;99.90;;;;;;5095511;28;19924;-73
2021/09/24 00:45:46;;;;;;;;;;;13.70;99.90;;;;;;5095217;28;19950;-73
2021/09/24 00:48:18;;;;;;;;;;;13.70;99.90;;;;;;5095498;28;19931;-72
2021/09/24 00:50:44;;;;;;;;;;;13.60;99.90;;;;;;5095355;28;20344;-72
2021/09/24 00:53:11;;;;;;;;;;;13.70;99.90;;;;;;5078427;28;19927;-73
2021/09/24 00:55:38;;;;;;;;;;;13.60;99.90;;;;;;5078323;28;19928;-73
2021/09/24 00:58:05;;;;;;;;;;;13.70;99.90;;;;;;5095284;28;19944;-73
2021/09/24 01:00:36;;;;;;;;;;;13.70;99.90;;;;;;5112506;28;20424;-73
2021/09/24 01:03:08;;;;;;;;;;;13.60;99.90;;;;;;5095393;28;19967;-73
2021/09/24 01:05:40;;;;;;;;;;;13.70;99.90;;;;;;5095350;28;19978;-73
2021/09/24 01:08:14;;;;;;;;;;;13.60;99.90;;;;;;5094568;28;19928;-73
2021/09/24 01:10:46;;;;;;;;;;;13.60;99.90;;;;;;5078179;28;19959;-73
2021/09/24 01:13:17;;;;;;;;;;;13.60;99.90;;;;;;5094557;28;20288;-73
2021/09/24 01:15:45;;;;;;;;;;;13.60;99.90;;;;;;5112381;28;19923;-73
2021/09/24 01:18:17;;;;;;;;;;;13.50;99.90;;;;;;5095301;28;19928;-73
2021/09/24 01:20:49;;;;;;;;;;;13.50;99.90;;;;;;5078748;28;20305;-73
2021/09/24 01:23:21;;;;;;;;;;;13.50;99.90;;;;;;5078543;28;19927;-73
2021/09/24 01:25:53;;;;;;;;;;;13.50;99.90;;;;;;5112999;28;20332;-73
2021/09/24 01:28:20;;;;;;;;;;;13.40;99.90;;;;;;5094773;28;19927;-73
2021/09/24 01:30:46;;;;;;;;;;;13.40;99.90;;;;;;5077393;28;19963;-73
2021/09/24 01:33:18;;;;;;;;;;;13.40;99.90;;;;;;5093610;28;19928;-73
2021/09/24 01:35:50;;;;;;;;;;;13.40;99.90;;;;;;5093882;28;19946;-73
2021/09/24 01:38:16;;;;;;;;;;;13.30;99.90;;;;;;5093942;28;19950;-73
2021/09/24 01:40:48;;;;;;;;;;;13.30;99.90;;;;;;5094947;28;20048;-73
2021/09/24 01:43:15;;;;;;;;;;;13.30;99.90;;;;;;5077759;28;19924;-73
2021/09/24 01:45:46;;;;;;;;;;;13.20;99.90;;;;;;5094501;28;19923;-73
2021/09/24 01:48:18;;;;;;;;;;;13.20;99.90;;;;;;5095187;28;19975;-73
2021/09/24 01:50:50;;;;;;;;;;;13.20;99.90;;;;;;5094310;28;19959;-73
2021/09/24 01:53:22;;;;;;;;;;;13.10;99.90;;;;;;5095306;28;19971;-73
2021/09/24 01:55:49;;;;;;;;;;;13.10;99.90;;;;;;5093996;28;19924;-73
2021/09/24 01:58:20;;;;;;;;;;;13.10;99.90;;;;;;5094282;28;19924;-73
2021/09/24 02:00:47;;;;;;;;;;;13.20;99.90;;;;;;5094201;28;19931;-73
2021/09/24 02:03:14;;;;;;;;;;;13.20;99.90;;;;;;5077409;28;19930;-73
2021/09/24 02:05:46;;;;;;;;;;;13.20;99.90;;;;;;5094906;28;19931;-73
2021/09/24 02:08:17;;;;;;;;;;;13.30;99.90;;;;;;5095149;28;19950;-73
2021/09/24 02:10:49;;;;;;;;;;;13.30;99.90;;;;;;5094096;28;19943;-72
2021/09/24 02:13:21;;;;;;;;;;;13.30;99.90;;;;;;5096984;28;19924;-72
2021/09/24 02:15:48;;;;;;;;;;;13.30;99.90;;;;;;5098127;28;19924;-72
2021/09/24 02:18:16;;;;;;;;;;;13.20;99.90;;;;;;5098243;28;19924;-72
2021/09/24 02:20:48;;;;;;;;;;;13.20;99.90;;;;;;5116492;28;19931;-72
2021/09/24 02:23:14;;;;;;;;;;;13.20;99.90;;;;;;5116473;28;19931;-73
2021/09/24 02:25:41;;;;;;;;;;;13.30;99.90;;;;;;5081059;28;19923;-72
2021/09/24 02:28:13;;;;;;;;;;;13.20;99.90;;;;;;5098526;28;19942;-72
2021/09/24 02:30:40;;;;;;;;;;;13.20;99.90;;;;;;5098032;28;19931;-72
2021/09/24 02:33:11;;;;;;;;;;;13.20;99.90;;;;;;5098098;28;19931;-72
2021/09/24 02:35:43;;;;;;;;;;;13.20;99.90;;;;;;5081692;28;20346;-72
2021/09/24 02:38:15;;;;;;;;;;;13.30;99.90;;;;;;5097882;28;20390;-72
2021/09/24 02:40:46;;;;;;;;;;;13.30;99.90;;;;;;5116056;28;19950;-72
2021/09/24 02:43:18;;;;;;;;;;;13.40;99.90;;;;;;5098636;28;19959;-73
2021/09/24 02:45:50;;;;;;;;;;;13.30;99.90;;;;;;5115874;28;19927;-72
2021/09/24 02:48:17;;;;;;;;;;;13.30;99.90;;;;;;5116064;28;19923;-72
2021/09/24 02:50:48;;;;;;;;;;;13.30;99.90;;;;;;5081520;28;19973;-73
2021/09/24 02:53:15;;;;;;;;;;;13.30;99.90;;;;;;5080719;28;19928;-72
2021/09/24 02:55:47;;;;;;;;;;;13.40;99.90;;;;;;5115774;28;19924;-72
2021/09/24 02:58:13;;;;;;;;;;;13.30;99.90;;;;;;5098090;28;20340;-72
2021/09/24 03:00:40;;;;;;;;;;;13.40;99.90;;;;;;5097548;28;19961;-73
2021/09/24 03:03:07;;;;;;;;;;;13.30;99.90;;;;;;5080496;28;19950;-73
2021/09/24 03:05:38;;;;;;;;;;;13.20;99.90;;;;;;5115587;28;19970;-74
2021/09/24 03:08:05;;;;;;;;;;;13.20;99.90;;;;;;5097443;28;19930;-72
2021/09/24 03:10:37;;;;;;;;;;;13.10;99.90;;;;;;5097180;28;19924;-73
2021/09/24 03:13:09;;;;;;;;;;;13.00;99.90;;;;;;5115564;28;19923;-72
2021/09/24 03:15:36;;;;;;;;;;;13.00;99.90;;;;;;5096999;28;19931;-73
2021/09/24 03:18:03;;;;;;;;;;;13.00;99.90;;;;;;5097392;28;19973;-72
2021/09/24 03:20:35;;;;;;;;;;;12.90;99.90;;;;;;5115445;28;19969;-72
2021/09/24 03:23:06;;;;;;;;;;;12.90;99.90;;;;;;5115252;28;19977;-72
2021/09/24 03:25:39;;;;;;;;;;;12.90;99.90;;;;;;5096509;28;19923;-73
2021/09/24 03:28:10;;;;;;;;;;;12.90;99.90;;;;;;5097908;28;19923;-73
2021/09/24 03:30:42;;;;;;;;;;;12.90;99.90;;;;;;5081148;28;20340;-72
2021/09/24 03:33:14;;;;;;;;;;;12.80;99.90;;;;;;5115214;28;19928;-72
2021/09/24 03:35:41;;;;;;;;;;;12.80;99.90;;;;;;5079933;28;19949;-73
2021/09/24 03:38:08;;;;;;;;;;;12.80;99.90;;;;;;5080132;28;19974;-73
2021/09/24 03:40:39;;;;;;;;;;;12.80;99.90;;;;;;5096730;28;19928;-72
2021/09/24 03:43:11;;;;;;;;;;;12.80;99.90;;;;;;5080652;28;19974;-73
2021/09/24 03:45:43;;;;;;;;;;;12.80;99.90;;;;;;5097404;28;19928;-72
2021/09/24 03:48:09;;;;;;;;;;;12.90;99.90;;;;;;5079823;28;19923;-73
2021/09/24 03:50:41;;;;;;;;;;;12.90;99.90;;;;;;5096100;28;20271;-72
2021/09/24 03:53:13;;;;;;;;;;;12.90;99.90;;;;;;5095885;28;19931;-72
2021/09/24 03:55:40;;;;;;;;;;;12.90;99.90;;;;;;5095551;28;19963;-73
2021/09/24 03:58:11;;;;;;;;;;;13.00;99.90;;;;;;5095811;28;19924;-72
2021/09/24 04:00:38;;;;;;;;;;;13.00;99.90;;;;;;5095646;28;19923;-72
2021/09/24 04:03:05;;;;;;;;;;;13.00;99.90;;;;;;5114069;28;20302;-73
2021/09/24 04:05:31;;;;;;;;;;;13.00;99.90;;;;;;5113667;28;19939;-73
2021/09/24 04:08:03;;;;;;;;;;;13.00;99.90;;;;;;5096519;28;19977;-73
2021/09/24 04:10:35;;;;;;;;;;;12.90;99.90;;;;;;5096137;28;19924;-73
2021/09/24 04:13:07;;;;;;;;;;;12.90;99.90;;;;;;5078708;28;20355;-73
2021/09/24 04:15:38;;;;;;;;;;;12.90;99.90;;;;;;5095366;28;19924;-75
2021/09/24 04:18:10;;;;;;;;;;;12.90;99.90;;;;;;5077859;28;20339;-72
2021/09/24 04:20:37;;;;;;;;;;;12.80;99.90;;;;;;5102926;28;19939;-72
2021/09/24 04:23:03;;;;;;;;;;;12.90;99.90;;;;;;5112391;27;20451;-72
2021/09/24 04:25:35;;;;;;;;;;;13.00;99.90;;;;;;5093660;28;19931;-73
2021/09/24 04:28:07;;;;;;;;;;;12.90;99.90;;;;;;5068608;28;19928;-73
2021/09/24 04:30:34;;;;;;;;;;;12.90;99.90;;;;;;5092212;28;19928;-72
2021/09/24 04:33:05;;;;;;;;;;;12.90;99.90;;;;;;5071788;27;19932;-75
2021/09/24 04:35:32;;;;;;;;;;;12.90;99.90;;;;;;5088025;28;19928;-73
2021/09/24 04:38:04;;;;;;;;;;;12.90;99.90;;;;;;5110449;28;20053;-72
2021/09/24 04:40:36;;;;;;;;;;;12.90;99.90;;;;;;5070877;28;20461;-72
2021/09/24 04:43:03;;;;;;;;;;;12.90;99.90;;;;;;5068628;28;20446;-72
2021/09/24 04:45:30;;;;;;;;;;;12.90;99.90;;;;;;5099976;28;20769;-72
2021/09/24 04:48:02;;;;;;;;;;;12.80;99.90;;;;;;5077443;27;19972;-72
2021/09/24 04:50:34;;;;;;;;;;;12.80;99.90;;;;;;5080716;28;19931;-72
2021/09/24 04:53:02;;;;;;;;;;;12.80;99.90;;;;;;5046084;28;19932;-72
2021/09/24 04:55:30;;;;;;;;;;;12.80;99.90;;;;;;5074809;28;19927;-73
2021/09/24 04:58:02;;;;;;;;;;;12.80;99.90;;;;;;5078076;28;19927;-73
2021/09/24 05:00:34;;;;;;;;;;;12.80;99.90;;;;;;5073611;28;20115;-73
2021/09/24 05:03:06;;;;;;;;;;;12.70;99.90;;;;;;5074299;28;19924;-73
2021/09/24 05:05:32;;;;;;;;;;;12.70;99.90;;;;;;5073686;28;19974;-73
2021/09/24 05:07:59;;;;;;;;;;;12.70;99.90;;;;;;5057298;28;19924;-73
2021/09/24 05:10:31;;;;;;;;;;;12.70;99.90;;;;;;5110628;28;20317;-73
2021/09/24 05:12:57;;;;;;;;;;;12.70;99.90;;;;;;5086372;28;19924;-72
2021/09/24 05:15:29;;;;;;;;;;;12.70;99.90;;;;;;5100731;28;19923;-72
2021/09/24 05:17:56;;;;;;;;;;;12.60;99.90;;;;;;5086089;28;19924;-72
2021/09/24 05:20:25;;;;;;;;;;;12.70;99.90;;;;;;5077034;28;19924;-72
2021/09/24 05:22:57;;;;;;;;;;;12.60;99.90;;;;;;5090503;28;19930;-72
2021/09/24 05:25:29;;;;;;;;;;;12.60;99.90;;;;;;5092887;28;20007;-73
2021/09/24 05:28:00;;;;;;;;;;;12.60;99.90;;;;;;5091933;28;20027;-73
2021/09/24 05:30:32;;;;;;;;;;;12.60;99.90;;;;;;5106419;28;19930;-73
2021/09/24 05:33:04;;;;;;;;;;;12.60;99.90;;;;;;5077938;28;19928;-73
2021/09/24 05:35:35;;;;;;;;;;;12.50;99.90;;;;;;5093405;28;19923;-73
2021/09/24 05:38:02;;;;;;;;;;;12.60;99.90;;;;;;5075125;28;19970;-73
2021/09/24 05:40:34;;;;;;;;;;;12.50;99.90;;;;;;5074876;28;19932;-74
2021/09/24 05:43:05;;;;;;;;;;;12.50;99.90;;;;;;5098799;28;19932;-73
2021/09/24 05:45:32;;;;;;;;;;;12.50;99.90;;;;;;5087133;28;19924;-72
2021/09/24 05:48:04;;;;;;;;;;;12.50;99.90;;;;;;5110194;28;19927;-72
2021/09/24 05:50:35;;;;;;;;;;;12.50;99.90;;;;;;5113901;27;20381;-72
2021/09/24 05:53:02;;;;;;;;;;;12.50;99.90;;;;;;5109710;28;19923;-72
2021/09/24 05:55:34;;;;;;;;;;;12.50;99.90;;;;;;5100574;27;20338;-72
2021/09/24 05:58:01;;;;;;;;;;;12.50;99.90;;;;;;5084006;28;20019;-72
2021/09/24 06:00:33;;;;;;;;;;;12.50;99.90;;;;;;5096502;28;20015;-73
2021/09/24 06:03:04;;;;;;;;;;;12.60;99.90;;;;;;5100131;28;19935;-73
2021/09/24 06:05:31;;;;;;;;;;;12.60;99.90;;;;;;5074479;28;20051;-73
2021/09/24 06:08:03;;;;;;;;;;;12.60;99.90;;;;;;5092794;28;20394;-73
2021/09/24 06:10:35;;;;;;;;;;;12.60;99.90;;;;;;5076052;28;19951;-73
2021/09/24 06:13:07;;;;;;;;;;;12.70;99.90;;;;;;5088346;28;19931;-73
2021/09/24 06:15:39;;;;;;;;;;;12.70;99.90;;;;;;5085833;28;19924;-74
2021/09/24 06:18:11;;;;;;;;;;;12.80;99.90;;;;;;5107824;28;19923;-73
2021/09/24 06:20:43;;;;;;;;;;;12.90;99.90;;;;;;5090713;28;20019;-73
2021/09/24 06:23:15;;;;;;;;;;;12.90;99.90;;;;;;5095822;28;19927;-74
2021/09/24 06:25:46;;;;;;;;;;;13.00;99.90;;;;;;5102000;28;19928;-73
2021/09/24 06:28:18;;;;;;;;;;;13.00;99.90;;;;;;5096129;28;19924;-73
2021/09/24 06:30:50;;;;;;;;;;;13.10;99.90;;;;;;5111647;28;20010;-73
2021/09/24 06:33:22;;;;;;;;;;;13.10;99.90;;;;;;5111834;28;19931;-73
2021/09/24 06:35:54;;;;;;;;;;;13.20;99.90;;;;;;5076992;28;19973;-73
2021/09/24 06:38:25;;;;;;;;;;;13.30;99.90;;;;;;5078498;28;20023;-72
2021/09/24 06:40:57;;;;;;;;;;;13.30;99.90;;;;;;5115319;28;20377;-73
2021/09/24 06:43:24;;;;;;;;;;;13.30;99.90;;;;;;5085476;28;20016;-73
2021/09/24 06:45:55;;;;;;;;;;;13.30;99.90;;;;;;5085750;28;20352;-73
2021/09/24 06:48:22;;;;;;;;;;;13.30;99.90;;;;;;5075751;28;20364;-74
2021/09/24 06:50:54;;;;;;;;;;;13.30;99.90;;;;;;5085618;28;19924;-72
2021/09/24 06:53:20;;;;;;;;;;;13.30;99.90;;;;;;5093021;28;19923;-74
2021/09/24 06:55:52;;;;;;;;;;;13.30;99.90;;;;;;5071446;28;19924;-73
2021/09/24 06:58:23;;;;;;;;;;;13.40;99.90;;;;;;5089159;28;19931;-73
2021/09/24 07:00:55;;;;;;;;;;;13.50;99.90;;;;;;5095450;28;19934;-73
2021/09/24 07:03:27;;;;;;;;;;;13.60;99.90;;;;;;5123577;27;19930;-73
2021/09/24 07:05:53;;;;;;;;;;;13.60;99.90;;;;;;5108108;28;20284;-73
2021/09/24 07:08:26;;;;;;;;;;;13.70;99.90;;;;;;5095022;28;19928;-72
2021/09/24 07:10:53;;;;;;;;;;;13.80;99.90;;;;;;5090663;27;20536;-74
2021/09/24 07:13:19;;;;;;;;;;;13.90;99.90;;;;;;5100158;28;19955;-73
2021/09/24 07:15:51;;;;;;;;;;;13.90;99.90;;;;;;5095075;27;19946;-72
2021/09/24 07:18:23;;;;;;;;;;;14.00;99.90;;;;;;5095722;28;19950;-73
2021/09/24 07:20:55;;;;;;;;;;;14.00;99.90;;;;;;5112725;27;19923;-71
2021/09/24 07:23:26;;;;;;;;;;;14.10;99.90;;;;;;5088293;28;19984;-73
2021/09/24 07:25:58;;;;;;;;;;;14.20;99.90;;;;;;5078412;28;19930;-73
2021/09/24 07:28:25;;;;;;;;;;;14.20;99.90;;;;;;5078821;28;19967;-74
2021/09/24 07:30:51;;;;;;;;;;;14.30;99.90;;;;;;5085589;28;19930;-74
2021/09/24 07:33:18;;;;;;;;;;;14.30;99.90;;;;;;5113034;28;19970;-74
2021/09/24 07:35:45;;;;;;;;;;;14.40;99.90;;;;;;5074862;28;19956;-71
2021/09/24 07:38:18;;;;;;;;;;;14.50;99.90;;;;;;5095075;28;19946;-74
2021/09/24 07:40:45;;;;;;;;;;;14.50;99.90;;;;;;5092422;28;19945;-73
2021/09/24 07:43:17;;;;;;;;;;;14.50;99.90;;;;;;5113982;28;19986;-73
2021/09/24 07:45:49;;;;;;;;;;;14.50;99.90;;;;;;5078997;28;19924;-73
2021/09/24 07:48:15;;;;;;;;;;;14.60;99.90;;;;;;5099043;28;20349;-74
2021/09/24 07:50:47;;;;;;;;;;;14.60;99.90;;;;;;5105502;27;19923;-73
2021/09/24 07:53:19;;;;;;;;;;;14.70;99.90;;;;;;5088989;28;19934;-73
2021/09/24 07:55:50;;;;;;;;;;;14.80;99.90;;;;;;5095353;28;19977;-73
2021/09/24 07:58:23;;;;;;;;;;;14.90;99.90;;;;;;5095889;28;19923;-74
2021/09/24 08:00:54;;;;;;;;;;;15.00;99.90;;;;;;5072471;28;20026;-74
2021/09/24 08:03:26;;;;;;;;;;;15.10;99.90;;;;;;5110299;28;19927;-73
2021/09/24 08:05:57;;;;;;;;;;;15.20;99.90;;;;;;5074700;28;19924;-74
2021/09/24 08:08:29;;;;;;;;;;;15.30;99.90;;;;;;5112340;28;20022;-73
2021/09/24 08:10:56;;;;;;;;;;;15.40;99.90;;;;;;5111496;28;20465;-74
2021/09/24 08:13:24;;;;;;;;;;;15.40;99.90;;;;;;5075670;28;19924;-73
2021/09/24 08:15:56;;;;;;;;;;;15.50;99.90;;;;;;5087363;27;19927;-73
2021/09/24 08:18:23;;;;;;;;;;;15.60;99.90;;;;;;5084076;28;20358;-73
2021/09/24 08:20:55;;;;;;;;;;;15.70;99.90;;;;;;5095446;28;20400;-74
2021/09/24 08:23:21;;;;;;;;;;;15.80;99.90;;;;;;5094333;28;19924;-74
2021/09/24 08:25:48;;;;;;;;;;;15.90;99.90;;;;;;5077736;28;20050;-73
2021/09/24 08:28:16;;;;;;;;;;;16.00;99.90;;;;;;5061420;28;20476;-72
2021/09/24 08:30:43;;;;;;;;;;;16.10;99.90;;;;;;5074635;28;19931;-73
2021/09/24 08:33:15;;;;;;;;;;;16.20;99.90;;;;;;5103296;28;19952;-74
2021/09/24 08:35:59;;;;;;;;;;;16.30;99.90;;;;;;5073484;28;20398;-73
2021/09/24 08:38:30;;;;;;;;;;;16.40;99.90;;;;;;4979532;28;19936;-73
2021/09/24 08:40:57;;;;;;;;;;;16.40;99.90;;;;;;4968922;28;20359;-73
2021/09/24 08:43:29;;;;;;;;;;;16.50;99.90;;;;;;4979480;28;19930;-73
2021/09/24 08:45:56;;;;;;;;;;;16.50;99.90;;;;;;4994649;28;20674;-73
2021/09/24 08:48:22;;;;;;;;;;;16.50;99.90;;;;;;4995707;28;20290;-73
2021/09/24 08:50:55;;;;;;;;;;;16.60;99.90;;;;;;4976564;28;19925;-73
2021/09/24 08:53:22;;;;;;;;;;;16.70;99.90;;;;;;4975747;28;20294;-73
2021/09/24 08:55:54;;;;;;;;;;;16.80;99.90;;;;;;4976291;28;20019;-73
2021/09/24 08:58:25;;;;;;;;;;;16.80;99.90;;;;;;4975142;28;19926;-73
2021/09/24 09:00:57;;;;;;;;;;;16.90;99.90;;;;;;4976375;28;20285;-73
2021/09/24 09:03:36;;;;;;;;;;;17.00;99.90;;;;;;4970063;28;19930;-73
2021/09/24 09:06:09;;;;;;;;;;;17.00;99.90;;;;;;4969494;28;19934;-73
2021/09/24 09:08:36;;;;;;;;;;;17.10;99.90;;;;;;4969220;28;20024;-73
2021/09/24 09:11:04;;;;;;;;;;;17.10;99.90;;;;;;4985754;28;19926;-73
2021/09/24 09:13:53;;;;;;;;;;;17.10;99.90;;;;;;4979979;28;19932;-73
2021/09/24 09:16:34;;;;;;;;;;;17.30;99.90;;;;;;4983544;28;19925;-73
2021/09/24 09:19:12;;;;;;;;;;;17.40;99.90;;;;;;4991728;28;20394;-73
2021/09/24 09:21:42;;;;;;;;;;;17.40;99.90;;;;;;4993129;28;19963;-73
2021/09/24 09:24:17;;;;;;;;;;;17.50;99.90;;;;;;4994606;28;19932;-73
2021/09/24 09:26:44;;;;;;;;;;;17.60;99.90;;;;;;4977977;28;19925;-73
2021/09/24 09:29:12;;;;;;;;;;;17.60;99.90;;;;;;4971478;28;20106;-73
2021/09/24 09:31:56;;;;;;;;;;;17.70;99.90;;;;;;4960059;28;19932;-73
2021/09/24 09:34:32;;;;;;;;;;;17.90;99.90;;;;;;4991906;28;20396;-73
2021/09/24 09:37:14;;;;;;;;;;;17.90;99.90;;;;;;4974945;28;20400;-73
2021/09/24 09:40:00;;;;;;;;;;;17.80;99.90;;;;;;4975534;28;19973;-72
2021/09/24 09:42:33;;;;;;;;;;;17.80;99.90;;;;;;4981419;28;20368;-73
2021/09/24 09:45:00;;;;;;;;;;;17.90;99.90;;;;;;4988510;28;19936;-72
2021/09/24 09:47:33;;;;;;;;;;;18.10;99.90;;;;;;4978994;28;20303;-74
2021/09/24 09:50:08;;;;;;;;;;;18.10;99.90;;;;;;4975796;28;19926;-73
2021/09/24 09:52:56;;;;;;;;;;;18.30;99.90;;;;;;4975591;28;19985;-73
2021/09/24 09:55:23;;;;;;;;;;;18.30;99.90;;;;;;4992156;28;20451;-74
2021/09/24 09:57:59;;;;;;;;;;;18.10;99.90;;;;;;5004239;28;19932;-73
2021/09/24 10:00:31;;;;;;;;;;;18.20;99.90;;;;;;4994110;28;20368;-74
2021/09/24 10:03:02;;;;;;;;;;;18.30;99.90;;;;;;4987013;28;20016;-73
2021/09/24 10:05:39;;;;;;;;;;;18.30;99.90;;;;;;4993106;28;19933;-74
2021/09/24 10:08:37;;;;;;;;;;;18.40;99.90;;;;;;4985971;28;19925;-73
2021/09/24 10:11:13;;;;;;;;;;;18.40;99.90;;;;;;5000547;28;19933;-73
2021/09/24 10:13:50;;;;;;;;;;;18.60;99.90;;;;;;4973138;28;19926;-73
2021/09/24 10:16:23;;;;;;;;;;;18.70;99.90;;;;;;4974368;28;20032;-73
2021/09/24 10:18:55;;;;;;;;;;;18.70;99.90;;;;;;4975412;28;19960;-74
2021/09/24 10:21:27;;;;;;;;;;;18.80;99.90;;;;;;4971808;28;20025;-74
2021/09/24 10:23:59;;;;;;;;;;;18.80;99.90;;;;;;4983295;28;19948;-74
2021/09/24 10:26:30;;;;;;;;;;;18.90;99.90;;;;;;4971877;28;20017;-74
2021/09/24 10:29:00;;;;;;;;;;;18.90;99.90;;;;;;4969857;28;19970;-73
2021/09/24 10:31:42;;;;;;;;;;;19.00;99.90;;;;;;4992771;28;19932;-74
2021/09/24 10:34:08;;;;;;;;;;;19.10;99.90;;;;;;4986527;28;20008;-73
2021/09/24 10:36:50;;;;;;;;;;;19.10;99.90;;;;;;4982478;28;19977;-73
2021/09/24 10:39:28;;;;;;;;;;;19.10;99.90;;;;;;4987622;28;20384;-72
2021/09/24 10:42:14;;;;;;;;;;;19.20;99.90;;;;;;5012641;28;20081;-73
2021/09/24 10:44:59;;;;;;;;;;;19.20;99.90;;;;;;4980517;28;21188;-72
2021/09/24 10:47:50;;;;;;;;;;;19.30;99.90;;;;;;4959028;28;19926;-72
2021/09/24 10:50:31;;;;;;;;;;;19.30;99.90;;;;;;4983964;28;20353;-73
2021/09/24 10:53:18;;;;;;;;;;;19.30;99.90;;;;;;5003367;28;19968;-73
2021/09/24 10:55:53;;;;;;;;;;;19.20;99.90;;;;;;4987691;28;19937;-71
2021/09/24 10:58:23;;;;;;;;;;;19.20;99.90;;;;;;4968808;28;20013;-72
2021/09/24 11:00:56;;;;;;;;;;;19.20;99.90;;;;;;4976193;28;19925;-72
2021/09/24 11:03:24;;;;;;;;;;;19.30;99.90;;;;;;4983148;28;20012;-72
2021/09/24 11:06:03;;;;;;;;;;;19.40;99.90;;;;;;4981644;28;19926;-73
2021/09/24 11:08:33;;;;;;;;;;;19.30;99.90;;;;;;5014983;28;19929;-72
2021/09/24 11:11:05;;;;;;;;;;;19.30;99.90;;;;;;5014097;28;20376;-72
2021/09/24 11:13:42;;;;;;;;;;;19.40;99.90;;;;;;4997200;28;19926;-72
2021/09/24 11:16:15;;;;;;;;;;;19.50;99.90;;;;;;4958748;28;20020;-72
2021/09/24 11:19:00;;;;;;;;;;;19.60;99.90;;;;;;4966442;28;19932;-73
2021/09/24 11:21:39;;;;;;;;;;;19.60;99.90;;;;;;4964676;28;19925;-73
2021/09/24 11:24:25;;;;;;;;;;;19.70;99.90;;;;;;4970080;28;19934;-73
2021/09/24 11:26:58;;;;;;;;;;;19.90;99.90;;;;;;4975006;28;20020;-73
2021/09/24 11:29:30;;;;;;;;;;;19.90;99.90;;;;;;4976762;28;19936;-73
2021/09/24 11:32:03;;;;;;;;;;;19.90;99.90;;;;;;4976083;28;20012;-73
2021/09/24 11:34:35;;;;;;;;;;;20.00;99.90;;;;;;4966994;28;19968;-72
2021/09/24 11:37:04;;;;;;;;;;;20.00;99.90;;;;;;4991481;28;19988;-73
2021/09/24 11:39:36;;;;;;;;;;;20.10;99.90;;;;;;4981137;28;19926;-73
2021/09/24 11:42:10;;;;;;;;;;;20.20;99.90;;;;;;4975877;28;20016;-72
2021/09/24 11:44:41;;;;;;;;;;;20.30;99.90;;;;;;4970253;28;19929;-72
2021/09/24 11:47:32;;;;;;;;;;;20.30;99.90;;;;;;4978065;28;19926;-72
2021/09/24 11:50:05;;;;;;;;;;;20.30;99.90;;;;;;4973257;28;19932;-73
2021/09/24 11:52:47;;;;;;;;;;;20.30;99.90;;;;;;4974854;28;19932;-72
2021/09/24 11:55:18;;;;;;;;;;;20.30;99.90;;;;;;4976785;28;19932;-72
2021/09/24 11:57:58;;;;;;;;;;;20.40;99.90;;;;;;4993497;28;19930;-72
2021/09/24 12:00:26;;;;;;;;;;;20.50;99.90;;;;;;4979825;28;19926;-72
2021/09/24 12:03:17;;;;;;;;;;;20.70;99.90;;;;;;4964262;28;20021;-73
2021/09/24 12:05:55;;;;;;;;;;;20.80;99.90;;;;;;4968949;28;20024;-72
2021/09/24 12:08:28;;;;;;;;;;;20.80;99.90;;;;;;4978812;28;20012;-72
2021/09/24 12:11:05;;;;;;;;;;;20.80;99.90;;;;;;5002703;28;20028;-72
2021/09/24 12:13:51;;;;;;;;;;;20.80;99.90;;;;;;4972185;28;19960;-72
2021/09/24 12:16:24;;;;;;;;;;;20.80;99.90;;;;;;4960187;28;19926;-74
2021/09/24 12:18:56;;;;;;;;;;;20.80;99.90;;;;;;4977022;28;19965;-72
2021/09/24 12:21:40;;;;;;;;;;;20.80;99.90;;;;;;5006349;28;19952;-73
2021/09/24 12:24:08;;;;;;;;;;;20.90;99.90;;;;;;4970127;28;20010;-72
2021/09/24 12:26:42;;;;;;;;;;;20.80;99.90;;;;;;4981781;28;19930;-73
2021/09/24 12:29:15;;;;;;;;;;;20.90;99.90;;;;;;5012276;28;19931;-72
2021/09/24 12:31:48;;;;;;;;;;;21.00;99.90;;;;;;5011415;28;19925;-73
2021/09/24 12:34:22;;;;;;;;;;;21.00;99.90;;;;;;4990845;28;19975;-74
2021/09/24 12:36:54;;;;;;;;;;;21.10;99.90;;;;;;4982305;28;20013;-72
2021/09/24 12:39:22;;;;;;;;;;;21.10;99.90;;;;;;4980266;28;19930;-73
2021/09/24 12:41:49;;;;;;;;;;;21.20;99.90;;;;;;4992274;28;20016;-73
2021/09/24 12:44:19;;;;;;;;;;;21.20;99.90;;;;;;4970745;28;19988;-73
2021/09/24 12:46:50;;;;;;;;;;;21.30;99.90;;;;;;4975255;28;20020;-73
2021/09/24 12:49:17;;;;;;;;;;;21.40;99.90;;;;;;4990861;28;20020;-73
2021/09/24 12:51:51;;;;;;;;;;;21.50;99.90;;;;;;4969543;28;19969;-74
2021/09/24 12:54:24;;;;;;;;;;;21.40;99.90;;;;;;4974386;28;19932;-75
2021/09/24 12:56:56;;;;;;;;;;;21.40;99.90;;;;;;4985126;28;19926;-74
2021/09/24 12:59:23;;;;;;;;;;;21.50;99.90;;;;;;4974250;28;19989;-74
2021/09/24 13:01:54;;;;;;;;;;;21.50;99.90;;;;;;4998295;28;19972;-73
2021/09/24 13:04:21;;;;;;;;;;;21.50;99.90;;;;;;4998116;28;20592;-74
2021/09/24 13:06:49;;;;;;;;;;;21.50;99.90;;;;;;5004690;28;20020;-74
2021/09/24 13:09:21;;;;;;;;;;;21.70;99.90;;;;;;4995779;28;19996;-74
2021/09/24 13:11:48;;;;;;;;;;;21.70;99.90;;;;;;4994743;28;20028;-74
2021/09/24 13:14:19;;;;;;;;;;;21.80;99.90;;;;;;4994409;28;19932;-74
2021/09/24 13:16:46;;;;;;;;;;;21.70;99.90;;;;;;4994512;28;19925;-74
2021/09/24 13:19:13;;;;;;;;;;;21.70;99.90;;;;;;4994382;28;20424;-72
2021/09/24 13:21:45;;;;;;;;;;;21.80;99.90;;;;;;4995730;28;20555;-73
2021/09/24 13:24:18;;;;;;;;;;;21.80;99.90;;;;;;5011794;28;20472;-73
2021/09/24 13:26:52;;;;;;;;;;;21.80;99.30;;;;;;4994881;28;19932;-73
2021/09/24 13:29:24;;;;;;;;;;;21.80;98.80;;;;;;4984696;28;20523;-73
2021/09/24 13:31:56;;;;;;;;;;;21.80;98.50;;;;;;4982966;28;19929;-73
2021/09/24 13:34:22;;;;;;;;;;;21.90;99.20;;;;;;4977407;28;19933;-74
2021/09/24 13:36:49;;;;;;;;;;;22.00;97.50;;;;;;4979368;28;19941;-74
2021/09/24 13:39:16;;;;;;;;;;;22.00;96.40;;;;;;4975449;28;20295;-74
2021/09/24 13:41:47;;;;;;;;;;;22.00;95.30;;;;;;4993536;28;19926;-74
2021/09/24 13:44:19;;;;;;;;;;;22.10;95.00;;;;;;4974178;28;19948;-75
2021/09/24 13:46:46;;;;;;;;;;;22.00;94.60;;;;;;4974229;28;20024;-74
2021/09/24 13:49:18;;;;;;;;;;;22.00;95.00;;;;;;4973868;28;20166;-74
2021/09/24 13:51:50;;;;;;;;;;;21.90;94.40;;;;;;4972466;28;20480;-75
2021/09/24 13:54:23;;;;;;;;;;;22.00;94.80;;;;;;4991902;28;19926;-73
2021/09/24 13:56:49;;;;;;;;;;;22.10;93.60;;;;;;4959335;28;19965;-74
2021/09/24 13:59:22;;;;;;;;;;;22.10;94.50;;;;;;4976179;28;20408;-73
2021/09/24 14:01:53;;;;;;;;;;;22.10;95.20;;;;;;4973753;28;19926;-74
2021/09/24 14:04:26;;;;;;;;;;;22.20;95.70;;;;;;4989759;28;19969;-74
2021/09/24 14:06:59;;;;;;;;;;;22.20;94.20;;;;;;4975710;28;20396;-74
2021/09/24 14:09:26;;;;;;;;;;;22.20;94.00;;;;;;4973718;28;20186;-73
2021/09/24 14:11:59;;;;;;;;;;;22.20;93.90;;;;;;4975688;28;20020;-74
2021/09/24 14:14:26;;;;;;;;;;;22.20;95.50;;;;;;4974078;28;19930;-74
2021/09/24 14:16:53;;;;;;;;;;;22.30;94.80;;;;;;4992316;28;19957;-74
2021/09/24 14:19:20;;;;;;;;;;;22.30;93.20;;;;;;4958684;28;19925;-74
2021/09/24 14:21:52;;;;;;;;;;;22.30;94.70;;;;;;4992448;28;20478;-73
2021/09/24 14:24:24;;;;;;;;;;;22.30;93.00;;;;;;4975069;28;19997;-74
2021/09/24 14:26:51;;;;;;;;;;;22.30;93.80;;;;;;4974724;28;19953;-73
2021/09/24 14:29:22;;;;;;;;;;;22.40;94.20;;;;;;4974814;28;20008;-74
2021/09/24 14:31:54;;;;;;;;;;;22.40;93.60;;;;;;4991960;28;19926;-74
2021/09/24 14:34:21;;;;;;;;;;;22.40;93.10;;;;;;4972936;28;20352;-74
2021/09/24 14:36:55;;;;;;;;;;;22.40;92.80;;;;;;4970316;28;20464;-74
2021/09/24 14:39:21;;;;;;;;;;;22.50;93.90;;;;;;4964988;28;19984;-74